Time,TemperatureF,DewpointF,PressureIn,WindDirection,WindDirectionDegrees,WindSpeedMPH,WindSpeedGustMPH,Humidity,HourlyPrecipIn,Conditions,Clouds,dailyrainin,SoftwareType,DateUTC
2013-04-24 00:01:00,45.1,42.6,30.09,NE,37,12.0,20.0,91,0.00,,,0.00,meteohub,2013-04-24 04:01:00,
2013-04-24 00:06:00,45.1,42.6,30.08,NNE,19,12.0,21.0,91,0.00,,,0.00,meteohub,2013-04-24 04:06:00,
2013-04-24 00:11:00,45.1,42.6,30.08,NNE,33,13.0,21.0,91,0.00,,,0.00,meteohub,2013-04-24 04:11:00,
2013-04-24 00:16:00,45.1,42.6,30.08,North,4,15.0,21.0,91,0.00,,,0.00,meteohub,2013-04-24 04:16:00,
2013-04-24 00:21:00,45.1,42.6,30.08,NNW,328,9.0,19.0,91,0.00,,,0.00,meteohub,2013-04-24 04:21:00,
2013-04-24 00:26:00,45.1,42.6,30.08,North,11,15.0,19.0,91,0.00,,,0.00,meteohub,2013-04-24 04:26:00,
2013-04-24 00:31:00,45.1,42.6,30.08,North,8,15.0,19.0,91,0.00,,,0.00,meteohub,2013-04-24 04:31:00,
2013-04-24 00:36:00,45.1,42.6,30.08,NE,41,13.0,19.0,91,0.00,,,0.00,meteohub,2013-04-24 04:36:00,
2013-04-24 00:41:00,45.1,42.6,30.08,NNW,347,10.0,19.0,91,0.00,,,0.00,meteohub,2013-04-24 04:41:00,
2013-04-24 00:46:00,45.0,42.4,30.08,North,358,15.0,19.0,91,0.00,,,0.00,meteohub,2013-04-24 04:46:00,
2013-04-24 00:51:00,45.1,42.6,30.08,NNW,330,10.0,19.0,91,0.00,,,0.00,meteohub,2013-04-24 04:51:00,
2013-04-24 00:56:00,45.0,42.4,30.08,NW,326,13.0,19.0,91,0.00,,,0.00,meteohub,2013-04-24 04:56:00,
2013-04-24 01:01:00,45.0,42.4,30.08,WNW,303,9.0,19.0,91,0.00,,,0.00,meteohub,2013-04-24 05:01:00,
2013-04-24 01:06:00,45.0,42.4,30.08,NNE,33,9.0,18.0,91,0.00,,,0.00,meteohub,2013-04-24 05:06:00,
2013-04-24 01:11:00,45.0,42.4,30.08,North,353,10.0,17.0,91,0.00,,,0.00,meteohub,2013-04-24 05:11:00,
2013-04-24 01:16:00,45.0,42.4,30.08,NNW,328,11.0,16.0,91,0.00,,,0.00,meteohub,2013-04-24 05:16:00,
2013-04-24 01:21:00,45.0,42.4,30.07,NW,321,14.0,17.0,91,0.00,,,0.00,meteohub,2013-04-24 05:21:00,
2013-04-24 01:26:00,44.8,42.3,30.07,NNE,19,8.0,17.0,91,0.00,,,0.00,meteohub,2013-04-24 05:26:00,
2013-04-24 01:32:00,44.8,42.3,30.07,NNW,328,8.0,17.0,91,0.00,,,0.00,meteohub,2013-04-24 05:32:00,
2013-04-24 01:37:00,44.4,41.9,30.07,NNW,328,5.0,16.0,91,0.00,,,0.00,meteohub,2013-04-24 05:37:00,
2013-04-24 01:42:00,44.4,41.9,30.07,NNW,343,12.0,14.0,91,0.00,,,0.00,meteohub,2013-04-24 05:42:00,
2013-04-24 01:47:00,44.2,41.7,30.06,NNW,338,10.0,14.0,91,0.00,,,0.00,meteohub,2013-04-24 05:47:00,
2013-04-24 01:51:00,44.2,41.7,30.06,NNW,339,5.0,16.0,91,0.00,,,0.00,meteohub,2013-04-24 05:51:00,
2013-04-24 01:56:00,44.2,41.7,30.06,NNW,346,7.0,19.0,91,0.00,,,0.00,meteohub,2013-04-24 05:56:00,
2013-04-24 02:01:00,44.1,41.5,30.06,NNW,328,15.0,19.0,91,0.00,,,0.00,meteohub,2013-04-24 06:01:00,
2013-04-24 02:06:00,44.1,41.9,30.06,NNW,348,15.0,19.0,92,0.00,,,0.00,meteohub,2013-04-24 06:06:00,
2013-04-24 02:11:00,44.1,41.5,30.05,NW,323,13.0,19.0,91,0.00,,,0.00,meteohub,2013-04-24 06:11:00,
2013-04-24 02:16:00,44.1,41.9,30.05,NNW,338,12.0,19.0,92,0.00,,,0.00,meteohub,2013-04-24 06:16:00,
2013-04-24 02:21:00,44.1,41.9,30.05,North,355,12.0,19.0,92,0.00,,,0.00,meteohub,2013-04-24 06:21:00,
2013-04-24 02:26:00,44.1,41.9,30.05,NNW,331,12.0,19.0,92,0.00,,,0.00,meteohub,2013-04-24 06:26:00,
2013-04-24 02:31:00,44.1,41.9,30.04,NNW,342,10.0,21.0,92,0.00,,,0.00,meteohub,2013-04-24 06:31:00,
2013-04-24 02:36:00,44.1,41.9,30.04,WNW,301,11.0,21.0,92,0.00,,,0.00,meteohub,2013-04-24 06:36:00,
2013-04-24 02:41:00,44.1,41.9,30.04,NNW,340,13.0,21.0,92,0.00,,,0.00,meteohub,2013-04-24 06:41:00,
2013-04-24 02:47:00,44.1,41.9,30.04,NNW,333,10.0,19.0,92,0.00,,,0.00,meteohub,2013-04-24 06:47:00,
2013-04-24 02:52:00,44.1,41.9,30.04,NNE,27,14.0,19.0,92,0.00,,,0.00,meteohub,2013-04-24 06:52:00,
2013-04-24 02:57:00,44.1,41.9,30.03,NNW,335,12.0,18.0,92,0.00,,,0.00,meteohub,2013-04-24 06:57:00,
2013-04-24 03:02:00,44.1,41.9,30.03,NNW,335,8.0,18.0,92,0.00,,,0.00,meteohub,2013-04-24 07:02:00,
2013-04-24 03:07:00,43.9,41.7,30.03,NW,312,13.0,17.0,92,0.00,,,0.00,meteohub,2013-04-24 07:07:00,
2013-04-24 03:12:00,44.1,41.9,30.03,NW,318,8.0,18.0,92,0.00,,,0.00,meteohub,2013-04-24 07:12:00,
2013-04-24 03:17:00,43.9,41.7,30.02,North,354,8.0,18.0,92,0.00,,,0.00,meteohub,2013-04-24 07:17:00,
2013-04-24 03:22:00,43.9,41.7,30.03,NNW,347,12.0,19.0,92,0.00,,,0.00,meteohub,2013-04-24 07:22:00,
2013-04-24 03:27:00,44.1,41.9,30.03,NW,323,7.0,19.0,92,0.00,,,0.00,meteohub,2013-04-24 07:27:00,
2013-04-24 03:32:00,44.1,41.9,30.03,NW,316,7.0,19.0,92,0.00,,,0.00,meteohub,2013-04-24 07:32:00,
2013-04-24 03:37:00,44.1,41.9,30.03,NW,316,8.0,16.0,92,0.00,,,0.00,meteohub,2013-04-24 07:37:00,
2013-04-24 03:42:00,43.9,41.7,30.03,NNW,330,7.0,16.0,92,0.00,,,0.00,meteohub,2013-04-24 07:42:00,
2013-04-24 03:47:00,43.9,41.7,30.03,North,353,8.0,16.0,92,0.00,,,0.00,meteohub,2013-04-24 07:47:00,
2013-04-24 03:52:00,43.9,41.7,30.03,NW,318,8.0,16.0,92,0.00,,,0.00,meteohub,2013-04-24 07:52:00,
2013-04-24 03:57:00,43.9,41.7,30.03,NW,304,11.0,16.0,92,0.00,,,0.00,meteohub,2013-04-24 07:57:00,
2013-04-24 04:02:00,43.9,41.7,30.04,NW,307,9.0,15.0,92,0.00,,,0.00,meteohub,2013-04-24 08:02:00,
2013-04-24 04:07:00,43.9,41.7,30.04,NNW,328,7.0,15.0,92,0.00,,,0.00,meteohub,2013-04-24 08:07:00,
2013-04-24 04:12:00,43.9,41.7,30.04,NW,309,9.0,15.0,92,0.00,,,0.00,meteohub,2013-04-24 08:12:00,
2013-04-24 04:17:00,43.9,41.7,30.04,NW,312,7.0,14.0,92,0.00,,,0.00,meteohub,2013-04-24 08:17:00,
2013-04-24 04:22:00,43.9,41.7,30.04,WNW,300,9.0,14.0,92,0.00,,,0.00,meteohub,2013-04-24 08:22:00,
2013-04-24 04:26:00,43.9,41.7,30.05,WNW,302,6.0,13.0,92,0.00,,,0.00,meteohub,2013-04-24 08:26:00,
2013-04-24 04:31:00,44.1,41.9,30.05,NW,317,6.0,13.0,92,0.00,,,0.00,meteohub,2013-04-24 08:31:00,
2013-04-24 04:37:00,44.1,41.9,30.04,NW,318,6.0,13.0,92,0.00,,,0.00,meteohub,2013-04-24 08:37:00,
2013-04-24 04:41:00,44.1,41.9,30.04,NNW,339,8.0,13.0,92,0.00,,,0.00,meteohub,2013-04-24 08:41:00,
2013-04-24 04:46:00,44.1,41.9,30.04,NW,312,6.0,15.0,92,0.00,,,0.00,meteohub,2013-04-24 08:46:00,
2013-04-24 04:51:00,44.1,41.9,30.04,NNW,328,10.0,15.0,92,0.00,,,0.00,meteohub,2013-04-24 08:51:00,
2013-04-24 04:56:00,44.1,41.9,30.04,NW,325,8.0,21.0,92,0.00,,,0.00,meteohub,2013-04-24 08:56:00,
2013-04-24 05:01:00,44.1,41.9,30.04,NW,307,5.0,21.0,92,0.00,,,0.00,meteohub,2013-04-24 09:01:00,
2013-04-24 05:06:00,44.1,41.9,30.03,NNW,339,11.0,21.0,92,0.00,,,0.00,meteohub,2013-04-24 09:06:00,
2013-04-24 05:11:00,44.1,41.5,30.03,NNW,348,7.0,17.0,91,0.00,,,0.00,meteohub,2013-04-24 09:11:00,
2013-04-24 05:16:00,44.1,41.5,30.03,NW,308,10.0,17.0,91,0.00,,,0.00,meteohub,2013-04-24 09:16:00,
2013-04-24 05:21:00,44.1,41.5,30.04,North,351,13.0,17.0,91,0.00,,,0.00,meteohub,2013-04-24 09:21:00,
2013-04-24 05:26:00,44.1,41.5,30.04,NNW,328,11.0,18.0,91,0.00,,,0.00,meteohub,2013-04-24 09:26:00,
2013-04-24 05:31:00,44.1,41.5,30.04,NNW,336,12.0,18.0,91,0.00,,,0.00,meteohub,2013-04-24 09:31:00,
2013-04-24 05:36:00,44.1,41.5,30.04,NNW,328,10.0,18.0,91,0.00,,,0.00,meteohub,2013-04-24 09:36:00,
2013-04-24 05:41:00,44.1,41.5,30.04,North,356,10.0,17.0,91,0.00,,,0.00,meteohub,2013-04-24 09:41:00,
2013-04-24 05:46:00,44.1,41.5,30.04,NNW,345,8.0,17.0,91,0.00,,,0.00,meteohub,2013-04-24 09:46:00,
2013-04-24 05:51:00,44.1,41.5,30.04,NNW,328,5.0,16.0,91,0.00,,,0.00,meteohub,2013-04-24 09:51:00,
2013-04-24 05:56:00,44.1,41.5,30.05,NW,326,4.0,15.0,91,0.00,,,0.00,meteohub,2013-04-24 09:56:00,
2013-04-24 06:01:00,44.2,41.7,30.05,NW,321,5.0,12.0,91,0.00,,,0.00,meteohub,2013-04-24 10:01:00,
2013-04-24 06:06:00,44.2,41.7,30.06,NW,319,5.0,10.0,91,0.00,,,0.00,meteohub,2013-04-24 10:06:00,
2013-04-24 06:12:00,44.1,41.5,30.06,NNW,328,9.0,11.0,91,0.00,,,0.00,meteohub,2013-04-24 10:12:00,
2013-04-24 06:17:00,44.2,41.7,30.06,NW,309,7.0,11.0,91,0.00,,,0.00,meteohub,2013-04-24 10:17:00,
2013-04-24 06:22:00,44.4,41.9,30.06,NW,308,5.0,11.0,91,0.00,,,0.00,meteohub,2013-04-24 10:22:00,
2013-04-24 06:27:00,44.2,41.7,30.07,NW,307,7.0,9.0,91,0.00,,,0.00,meteohub,2013-04-24 10:27:00,
2013-04-24 06:32:00,44.4,41.9,30.07,NW,321,5.0,10.0,91,0.00,,,0.00,meteohub,2013-04-24 10:32:00,
2013-04-24 06:37:00,44.2,41.7,30.07,WNW,288,6.0,10.0,91,0.00,,,0.00,meteohub,2013-04-24 10:37:00,
2013-04-24 06:42:00,44.2,41.7,30.07,NW,309,9.0,11.0,91,0.00,,,0.00,meteohub,2013-04-24 10:42:00,
2013-04-24 06:47:00,44.2,41.7,30.07,NW,316,7.0,13.0,91,0.00,,,0.00,meteohub,2013-04-24 10:47:00,
2013-04-24 06:52:00,44.2,41.7,30.07,NW,321,6.0,13.0,91,0.00,,,0.00,meteohub,2013-04-24 10:52:00,
2013-04-24 06:57:00,44.2,41.7,30.08,NW,316,6.0,12.0,91,0.00,,,0.00,meteohub,2013-04-24 10:57:00,
2013-04-24 07:02:00,44.2,41.5,30.08,NW,323,5.0,12.0,90,0.00,,,0.00,meteohub,2013-04-24 11:02:00,
2013-04-24 07:06:00,44.2,41.5,30.08,NW,314,6.0,12.0,90,0.00,,,0.00,meteohub,2013-04-24 11:06:00,
2013-04-24 07:11:00,44.4,41.7,30.08,NNE,19,5.0,11.0,90,0.00,,,0.00,meteohub,2013-04-24 11:11:00,
2013-04-24 07:16:00,44.4,41.7,30.09,NNW,335,5.0,11.0,90,0.00,,,0.00,meteohub,2013-04-24 11:16:00,
2013-04-24 07:21:00,44.6,42.1,30.09,WNW,290,5.0,11.0,91,0.00,,,0.00,meteohub,2013-04-24 11:21:00,
2013-04-24 07:26:00,44.6,41.9,30.08,NW,319,6.0,10.0,90,0.00,,,0.00,meteohub,2013-04-24 11:26:00,
2013-04-24 07:31:00,44.6,42.1,30.08,NNW,328,5.0,9.0,91,0.00,,,0.00,meteohub,2013-04-24 11:31:00,
2013-04-24 07:36:00,44.4,41.7,30.08,NNW,328,3.0,12.0,90,0.00,,,0.00,meteohub,2013-04-24 11:36:00,
2013-04-24 07:41:00,44.4,41.7,30.08,NW,307,9.0,12.0,90,0.00,,,0.00,meteohub,2013-04-24 11:41:00,
2013-04-24 07:46:00,44.6,41.9,30.08,NW,325,8.0,13.0,90,0.00,,,0.00,meteohub,2013-04-24 11:46:00,
2013-04-24 07:51:00,44.8,42.1,30.08,NW,321,5.0,13.0,90,0.00,,,0.00,meteohub,2013-04-24 11:51:00,
2013-04-24 07:56:00,44.8,42.1,30.08,NW,309,9.0,10.0,90,0.00,,,0.00,meteohub,2013-04-24 11:56:00,
2013-04-24 08:01:00,44.8,42.1,30.08,NW,311,6.0,11.0,90,0.00,,,0.00,meteohub,2013-04-24 12:01:00,
2013-04-24 08:06:00,44.8,42.1,30.08,NNW,338,6.0,12.0,90,0.00,,,0.00,meteohub,2013-04-24 12:06:00,
2013-04-24 08:11:00,45.0,42.3,30.08,NW,305,2.0,12.0,90,0.00,,,0.00,meteohub,2013-04-24 12:11:00,
2013-04-24 08:16:00,45.0,42.3,30.08,NW,316,4.0,12.0,90,0.00,,,0.00,meteohub,2013-04-24 12:16:00,
2013-04-24 08:21:00,45.1,42.4,30.08,NW,307,6.0,8.0,90,0.00,,,0.00,meteohub,2013-04-24 12:21:00,
2013-04-24 08:26:00,45.1,42.1,30.09,NW,312,7.0,8.0,89,0.00,,,0.00,meteohub,2013-04-24 12:26:00,
2013-04-24 08:31:00,45.5,42.8,30.08,NNW,330,4.0,8.0,90,0.00,,,0.00,meteohub,2013-04-24 12:31:00,
2013-04-24 08:36:00,45.7,42.6,30.08,NW,305,5.0,8.0,89,0.00,,,0.00,meteohub,2013-04-24 12:36:00,
2013-04-24 08:41:00,45.9,42.8,30.08,NW,312,6.0,7.0,89,0.00,,,0.00,meteohub,2013-04-24 12:41:00,
2013-04-24 08:46:00,46.0,43.0,30.08,NW,309,3.0,7.0,89,0.00,,,0.00,meteohub,2013-04-24 12:46:00,
2013-04-24 08:51:00,46.0,42.6,30.08,NW,309,3.0,7.0,88,0.00,,,0.00,meteohub,2013-04-24 12:51:00,
2013-04-24 08:56:00,46.2,42.8,30.08,NW,307,3.0,7.0,88,0.00,,,0.00,meteohub,2013-04-24 12:56:00,
2013-04-24 09:01:00,46.6,43.5,30.08,WNW,303,3.0,7.0,89,0.00,,,0.00,meteohub,2013-04-24 13:01:00,
2013-04-24 09:07:00,46.9,43.5,30.07,WNW,287,3.0,6.0,88,0.00,,,0.00,meteohub,2013-04-24 13:07:00,
2013-04-24 09:11:00,46.9,43.5,30.07,WNW,297,2.0,6.0,88,0.00,,,0.00,meteohub,2013-04-24 13:11:00,
2013-04-24 09:16:00,47.1,43.5,30.07,NW,308,3.0,5.0,87,0.00,,,0.00,meteohub,2013-04-24 13:16:00,
2013-04-24 09:21:00,47.1,43.5,30.07,WNW,294,2.0,6.0,87,0.00,,,0.00,meteohub,2013-04-24 13:21:00,
2013-04-24 09:26:00,47.1,43.5,30.07,WNW,287,2.0,6.0,87,0.00,,,0.00,meteohub,2013-04-24 13:26:00,
2013-04-24 09:31:00,47.1,43.5,30.07,NW,309,3.0,6.0,87,0.00,,,0.00,meteohub,2013-04-24 13:31:00,
2013-04-24 09:37:00,47.3,43.7,30.07,WNW,294,2.0,5.0,87,0.00,,,0.00,meteohub,2013-04-24 13:37:00,
2013-04-24 09:41:00,47.5,43.9,30.07,West,281,3.0,4.0,87,0.00,,,0.00,meteohub,2013-04-24 13:41:00,
2013-04-24 09:47:00,47.8,44.2,30.07,WNW,287,3.0,4.0,87,0.00,,,0.00,meteohub,2013-04-24 13:47:00,
2013-04-24 09:52:00,47.7,44.1,30.06,WNW,295,4.0,5.0,87,0.00,,,0.00,meteohub,2013-04-24 13:52:00,
2013-04-24 09:57:00,47.5,44.1,30.06,WNW,283,4.0,5.0,88,0.00,,,0.00,meteohub,2013-04-24 13:57:00,
2013-04-24 10:02:00,47.3,43.9,30.06,West,273,3.0,5.0,88,0.00,,,0.00,meteohub,2013-04-24 14:02:00,
2013-04-24 10:07:00,47.7,44.2,30.06,WNW,285,3.0,5.0,88,0.00,,,0.00,meteohub,2013-04-24 14:07:00,
2013-04-24 10:12:00,47.7,44.2,30.06,West,273,3.0,5.0,88,0.00,,,0.00,meteohub,2013-04-24 14:12:00,
2013-04-24 10:16:00,47.8,44.4,30.06,WNW,291,3.0,5.0,88,0.00,,,0.00,meteohub,2013-04-24 14:16:00,
2013-04-24 10:22:00,47.8,44.4,30.06,West,266,4.0,5.0,88,0.00,,,0.00,meteohub,2013-04-24 14:22:00,
2013-04-24 10:27:00,47.8,44.4,30.06,WNW,288,4.0,6.0,88,0.00,,,0.00,meteohub,2013-04-24 14:27:00,
2013-04-24 10:31:00,48.2,44.8,30.06,WNW,293,2.0,6.0,88,0.00,,,0.00,meteohub,2013-04-24 14:31:00,
2013-04-24 10:36:00,48.4,44.8,30.06,West,274,3.0,6.0,87,0.00,,,0.00,meteohub,2013-04-24 14:36:00,
2013-04-24 10:41:00,48.6,44.6,30.06,West,271,2.0,6.0,86,0.00,,,0.00,meteohub,2013-04-24 14:41:00,
2013-04-24 10:46:00,48.7,44.8,30.06,West,273,3.0,6.0,86,0.00,,,0.00,meteohub,2013-04-24 14:46:00,
2013-04-24 10:51:00,48.7,44.8,30.06,West,273,3.0,6.0,86,0.00,,,0.00,meteohub,2013-04-24 14:51:00,
2013-04-24 10:56:00,48.7,44.8,30.05,WNW,285,3.0,5.0,86,0.00,,,0.00,meteohub,2013-04-24 14:56:00,
2013-04-24 11:01:00,48.9,45.0,30.05,West,276,3.0,5.0,86,0.00,,,0.00,meteohub,2013-04-24 15:01:00,
2013-04-24 11:09:00,49.1,44.8,30.05,WNW,282,3.0,5.0,85,0.00,,,0.00,meteohub,2013-04-24 15:09:00,
2013-04-24 11:14:00,49.3,45.0,30.05,West,281,2.0,5.0,85,0.00,,,0.00,meteohub,2013-04-24 15:14:00,
2013-04-24 11:19:00,49.6,45.3,30.05,West,263,3.0,5.0,85,0.00,,,0.00,meteohub,2013-04-24 15:19:00,
2013-04-24 11:24:00,50.2,45.5,30.05,West,260,3.0,5.0,84,0.00,,,0.00,meteohub,2013-04-24 15:24:00,
2013-04-24 11:29:00,50.4,45.1,30.04,WNW,287,1.0,5.0,82,0.00,,,0.00,meteohub,2013-04-24 15:29:00,
2013-04-24 11:34:00,50.4,44.8,30.05,WNW,294,3.0,5.0,81,0.00,,,0.00,meteohub,2013-04-24 15:34:00,
2013-04-24 11:39:00,50.7,45.1,30.04,WNW,291,4.0,5.0,81,0.00,,,0.00,meteohub,2013-04-24 15:39:00,
2013-04-24 11:44:00,50.7,45.5,30.04,West,276,5.0,5.0,82,0.00,,,0.00,meteohub,2013-04-24 15:44:00,
2013-04-24 11:49:00,50.9,45.7,30.04,WNW,282,2.0,6.0,82,0.00,,,0.00,meteohub,2013-04-24 15:49:00,
2013-04-24 11:54:00,51.3,45.7,30.03,WNW,287,0.0,6.0,81,0.00,,,0.00,meteohub,2013-04-24 15:54:00,
2013-04-24 11:59:00,52.2,45.1,30.03,West,281,5.0,5.0,77,0.00,,,0.00,meteohub,2013-04-24 15:59:00,
2013-04-24 12:04:00,52.3,45.7,30.03,WNW,284,2.0,5.0,78,0.00,,,0.00,meteohub,2013-04-24 16:04:00,
2013-04-24 12:09:00,52.9,45.9,30.02,WNW,289,4.0,6.0,77,0.00,,,0.00,meteohub,2013-04-24 16:09:00,
2013-04-24 12:14:00,53.1,45.7,30.02,WNW,288,3.0,6.0,76,0.00,,,0.00,meteohub,2013-04-24 16:14:00,
2013-04-24 12:19:00,52.9,45.5,30.01,WNW,295,3.0,6.0,76,0.00,,,0.00,meteohub,2013-04-24 16:19:00,
2013-04-24 12:24:00,52.7,45.7,30.01,WNW,285,3.0,6.0,77,0.00,,,0.00,meteohub,2013-04-24 16:24:00,
2013-04-24 12:29:00,53.1,46.4,30.01,WNW,282,3.0,6.0,78,0.00,,,0.00,meteohub,2013-04-24 16:29:00,
2013-04-24 12:34:00,52.9,45.9,30.01,WNW,287,3.0,7.0,77,0.00,,,0.00,meteohub,2013-04-24 16:34:00,
2013-04-24 12:39:00,52.9,46.2,30.01,WNW,291,3.0,7.0,78,0.00,,,0.00,meteohub,2013-04-24 16:39:00,
2013-04-24 12:44:00,53.2,46.2,30.01,West,280,3.0,7.0,77,0.00,,,0.00,meteohub,2013-04-24 16:44:00,
2013-04-24 12:49:00,53.6,46.6,30.00,WNW,284,4.0,5.0,77,0.00,,,0.00,meteohub,2013-04-24 16:49:00,
2013-04-24 12:54:00,54.3,47.3,30.00,NW,308,4.0,7.0,77,0.00,,,0.00,meteohub,2013-04-24 16:54:00,
2013-04-24 12:59:00,54.7,46.9,29.99,WNW,283,3.0,7.0,75,0.00,,,0.00,meteohub,2013-04-24 16:59:00,
2013-04-24 13:04:00,54.7,47.3,29.99,West,267,1.0,7.0,76,0.00,,,0.00,meteohub,2013-04-24 17:04:00,
2013-04-24 13:09:00,55.0,47.3,29.99,West,276,3.0,5.0,75,0.00,,,0.00,meteohub,2013-04-24 17:09:00,
2013-04-24 13:14:00,55.6,47.5,29.99,WSW,250,4.0,6.0,74,0.00,,,0.00,meteohub,2013-04-24 17:14:00,
2013-04-24 13:19:00,55.9,47.8,29.99,SW,233,6.0,7.0,74,0.00,,,0.00,meteohub,2013-04-24 17:19:00,
2013-04-24 13:24:00,56.5,47.1,29.99,WNW,283,3.0,8.0,71,0.00,,,0.00,meteohub,2013-04-24 17:24:00,
2013-04-24 13:29:00,56.8,47.1,29.99,SW,227,2.0,8.0,70,0.00,,,0.00,meteohub,2013-04-24 17:29:00,
2013-04-24 13:34:00,57.0,46.9,29.99,West,259,2.0,9.0,69,0.00,,,0.00,meteohub,2013-04-24 17:34:00,
2013-04-24 13:39:00,57.0,46.6,29.98,WSW,237,3.0,9.0,68,0.00,,,0.00,meteohub,2013-04-24 17:39:00,
2013-04-24 13:44:00,57.2,46.8,29.98,West,281,4.0,9.0,68,0.00,,,0.00,meteohub,2013-04-24 17:44:00,
2013-04-24 13:49:00,57.0,46.6,29.98,West,266,5.0,7.0,68,0.00,,,0.00,meteohub,2013-04-24 17:49:00,
2013-04-24 13:54:00,57.2,46.8,29.98,West,259,3.0,7.0,68,0.00,,,0.00,meteohub,2013-04-24 17:54:00,
2013-04-24 13:59:00,57.4,46.9,29.98,West,276,4.0,7.0,68,0.00,,,0.00,meteohub,2013-04-24 17:59:00,
2013-04-24 14:04:00,57.6,47.1,29.98,WNW,287,3.0,7.0,68,0.00,,,0.00,meteohub,2013-04-24 18:04:00,
2013-04-24 14:09:00,57.7,47.3,29.97,West,264,1.0,7.0,68,0.00,,,0.00,meteohub,2013-04-24 18:09:00,
2013-04-24 14:14:00,58.3,47.3,29.97,WNW,287,3.0,7.0,67,0.00,,,0.00,meteohub,2013-04-24 18:14:00,
2013-04-24 14:19:00,58.6,47.3,29.97,West,277,3.0,6.0,66,0.00,,,0.00,meteohub,2013-04-24 18:19:00,
2013-04-24 14:24:00,58.6,46.6,29.97,WSW,257,4.0,6.0,64,0.00,,,0.00,meteohub,2013-04-24 18:24:00,
2013-04-24 14:29:00,59.2,47.5,29.96,WNW,296,3.0,7.0,65,0.00,,,0.00,meteohub,2013-04-24 18:29:00,
2013-04-24 14:34:00,59.0,46.8,29.96,West,262,3.0,7.0,64,0.00,,,0.00,meteohub,2013-04-24 18:34:00,
2013-04-24 14:39:00,59.7,48.0,29.96,West,271,5.0,7.0,65,0.00,,,0.00,meteohub,2013-04-24 18:39:00,
2013-04-24 14:44:00,60.6,49.3,29.96,South,177,5.0,9.0,66,0.00,,,0.00,meteohub,2013-04-24 18:44:00,
2013-04-24 14:49:00,62.1,49.3,29.96,SW,217,7.0,10.0,63,0.00,,,0.00,meteohub,2013-04-24 18:49:00,
2013-04-24 14:54:00,62.8,49.6,29.96,SE,138,2.0,13.0,62,0.00,,,0.00,meteohub,2013-04-24 18:54:00,
2013-04-24 14:59:00,63.1,49.5,29.97,West,266,6.0,15.0,61,0.00,,,0.00,meteohub,2013-04-24 18:59:00,
2013-04-24 15:04:00,63.0,49.8,29.96,SSW,201,4.0,15.0,62,0.00,,,0.00,meteohub,2013-04-24 19:04:00,
2013-04-24 15:09:00,63.0,49.8,29.96,SSE,151,6.0,15.0,62,0.00,,,0.00,meteohub,2013-04-24 19:09:00,
2013-04-24 15:14:00,62.8,49.6,29.96,WSW,240,8.0,13.0,62,0.00,,,0.00,meteohub,2013-04-24 19:14:00,
2013-04-24 15:19:00,62.4,49.3,29.96,West,276,5.0,12.0,62,0.00,,,0.00,meteohub,2013-04-24 19:19:00,
2013-04-24 15:24:00,62.2,49.5,29.96,South,183,2.0,12.0,63,0.00,,,0.00,meteohub,2013-04-24 19:24:00,
2013-04-24 15:29:00,61.9,50.0,29.96,SSW,194,4.0,13.0,65,0.00,,,0.00,meteohub,2013-04-24 19:29:00,
2013-04-24 15:34:00,61.9,49.6,29.96,WSW,251,7.0,13.0,64,0.00,,,0.00,meteohub,2013-04-24 19:34:00,
2013-04-24 15:39:00,61.7,49.5,29.95,WSW,255,5.0,13.0,64,0.00,,,0.00,meteohub,2013-04-24 19:39:00,
2013-04-24 15:44:00,61.3,49.1,29.95,West,263,1.0,13.0,64,0.00,,,0.00,meteohub,2013-04-24 19:44:00,
2013-04-24 15:49:00,61.2,49.3,29.95,SSW,205,3.0,13.0,65,0.00,,,0.00,meteohub,2013-04-24 19:49:00,
2013-04-24 15:54:00,61.0,49.1,29.96,SSE,153,6.0,13.0,65,0.00,,,0.00,meteohub,2013-04-24 19:54:00,
2013-04-24 15:59:00,61.0,49.5,29.95,WSW,255,0.0,13.0,66,0.00,,,0.00,meteohub,2013-04-24 19:59:00,
2013-04-24 16:04:00,61.2,49.6,29.96,South,171,3.0,13.0,66,0.00,,,0.00,meteohub,2013-04-24 20:04:00,
2013-04-24 16:09:00,61.2,49.6,29.96,SSW,212,2.0,13.0,66,0.00,,,0.00,meteohub,2013-04-24 20:09:00,
2013-04-24 16:14:00,61.2,49.6,29.95,ESE,105,3.0,13.0,66,0.00,,,0.00,meteohub,2013-04-24 20:14:00,
2013-04-24 16:19:00,61.0,49.5,29.95,SSW,200,6.0,13.0,66,0.00,,,0.00,meteohub,2013-04-24 20:19:00,
2013-04-24 16:24:00,61.0,49.5,29.95,WNW,288,3.0,13.0,66,0.00,,,0.00,meteohub,2013-04-24 20:24:00,
2013-04-24 16:29:00,60.6,49.6,29.94,SE,138,1.0,13.0,67,0.00,,,0.00,meteohub,2013-04-24 20:29:00,
2013-04-24 16:34:00,60.1,49.1,29.94,SSE,163,5.0,11.0,67,0.00,,,0.00,meteohub,2013-04-24 20:34:00,
2013-04-24 16:39:00,60.1,49.8,29.95,SW,219,5.0,12.0,69,0.00,,,0.00,meteohub,2013-04-24 20:39:00,
2013-04-24 16:44:00,60.3,50.0,29.94,SSW,198,4.0,12.0,69,0.00,,,0.00,meteohub,2013-04-24 20:44:00,
2013-04-24 16:49:00,59.7,49.5,29.94,SW,236,5.0,12.0,69,0.00,,,0.00,meteohub,2013-04-24 20:49:00,
2013-04-24 16:54:00,59.2,49.5,29.95,ESE,116,3.0,13.0,70,0.00,,,0.00,meteohub,2013-04-24 20:54:00,
2013-04-24 16:59:00,59.4,49.6,29.95,SSW,212,5.0,15.0,70,0.00,,,0.00,meteohub,2013-04-24 20:59:00,
2013-04-24 17:04:00,59.2,49.1,29.95,SSW,203,4.0,15.0,69,0.00,,,0.00,meteohub,2013-04-24 21:04:00,
2013-04-24 17:09:00,58.8,49.1,29.95,WSW,245,2.0,14.0,70,0.00,,,0.00,meteohub,2013-04-24 21:09:00,
2013-04-24 17:14:00,57.9,48.6,29.95,WSW,246,5.0,14.0,71,0.00,,,0.00,meteohub,2013-04-24 21:14:00,
2013-04-24 17:19:00,57.6,48.6,29.95,SSW,203,8.0,14.0,72,0.00,,,0.00,meteohub,2013-04-24 21:19:00,
2013-04-24 17:24:00,56.8,47.8,29.96,WSW,246,8.0,14.0,72,0.00,,,0.00,meteohub,2013-04-24 21:24:00,
2013-04-24 17:29:00,56.1,48.0,29.95,SSE,165,3.0,15.0,74,0.00,,,0.00,meteohub,2013-04-24 21:29:00,
2013-04-24 17:34:00,55.2,47.8,29.95,SW,222,5.0,15.0,76,0.00,,,0.00,meteohub,2013-04-24 21:34:00,
2013-04-24 17:39:00,54.9,47.8,29.94,SSW,213,3.0,15.0,77,0.00,,,0.00,meteohub,2013-04-24 21:39:00,
2013-04-24 17:44:00,54.5,47.8,29.95,SE,130,5.0,13.0,78,0.00,,,0.00,meteohub,2013-04-24 21:44:00,
2013-04-24 17:49:00,53.6,47.7,29.95,SW,228,5.0,13.0,80,0.00,,,0.00,meteohub,2013-04-24 21:49:00,
2013-04-24 17:54:00,52.5,47.1,29.95,SSW,212,3.0,19.0,82,0.00,,,0.00,meteohub,2013-04-24 21:54:00,
2013-04-24 17:59:00,52.0,46.9,29.95,ESE,110,4.0,19.0,83,0.00,,,0.00,meteohub,2013-04-24 21:59:00,
2013-04-24 18:04:00,51.1,46.8,29.95,South,188,3.0,19.0,85,0.00,,,0.00,meteohub,2013-04-24 22:04:00,
2013-04-24 18:09:00,50.4,46.4,29.95,SSW,200,7.0,16.0,86,0.00,,,0.00,meteohub,2013-04-24 22:09:00,
2013-04-24 18:14:00,49.8,46.4,29.95,South,170,10.0,16.0,88,0.00,,,0.00,meteohub,2013-04-24 22:14:00,
2013-04-24 18:19:00,49.5,46.4,29.95,SE,145,5.0,17.0,89,0.00,,,0.00,meteohub,2013-04-24 22:19:00,
2013-04-24 18:24:00,49.3,46.2,29.95,SSE,159,8.0,17.0,89,0.00,,,0.00,meteohub,2013-04-24 22:24:00,
2013-04-24 18:29:00,48.7,45.9,29.95,WSW,240,2.0,17.0,90,0.00,,,0.00,meteohub,2013-04-24 22:29:00,
2013-04-24 18:34:00,48.4,45.9,29.95,South,173,2.0,18.0,91,0.00,,,0.00,meteohub,2013-04-24 22:34:00,
2013-04-24 18:39:00,48.0,45.5,29.95,SSW,197,4.0,18.0,91,0.00,,,0.00,meteohub,2013-04-24 22:39:00,
2013-04-24 18:44:00,47.8,45.7,29.95,SW,221,14.0,14.0,92,0.00,,,0.00,meteohub,2013-04-24 22:44:00,
2013-04-24 18:49:00,47.7,45.7,29.95,SW,224,3.0,17.0,93,0.00,,,0.00,meteohub,2013-04-24 22:49:00,
2013-04-24 18:54:00,47.5,45.5,29.94,SE,128,3.0,17.0,93,0.00,,,0.00,meteohub,2013-04-24 22:54:00,
2013-04-24 18:59:00,47.5,45.9,29.94,SE,138,4.0,17.0,94,0.00,,,0.00,meteohub,2013-04-24 22:59:00,
2013-04-24 19:04:00,47.3,45.7,29.94,South,190,3.0,15.0,94,0.00,,,0.00,meteohub,2013-04-24 23:04:00,
2013-04-24 19:09:00,47.1,45.5,29.94,East,101,7.0,15.0,94,0.00,,,0.00,meteohub,2013-04-24 23:09:00,
2013-04-24 19:14:00,47.1,45.5,29.94,SSE,147,11.0,19.0,94,0.00,,,0.00,meteohub,2013-04-24 23:14:00,
2013-04-24 19:19:00,47.1,45.7,29.93,SSE,156,12.0,20.0,95,0.00,,,0.00,meteohub,2013-04-24 23:19:00,
2013-04-24 19:24:00,46.9,45.5,29.94,SSE,155,7.0,20.0,95,0.00,,,0.00,meteohub,2013-04-24 23:24:00,
2013-04-24 19:29:00,46.9,45.5,29.93,SSW,195,4.0,20.0,95,0.00,,,0.00,meteohub,2013-04-24 23:29:00,
2013-04-24 19:34:00,46.9,45.5,29.93,SSW,197,3.0,15.0,95,0.00,,,0.00,meteohub,2013-04-24 23:34:00,
2013-04-24 19:39:00,46.9,45.5,29.93,SSE,153,6.0,15.0,95,0.00,,,0.00,meteohub,2013-04-24 23:39:00,
2013-04-24 19:44:00,46.9,45.5,29.93,SSW,207,4.0,15.0,95,0.00,,,0.00,meteohub,2013-04-24 23:44:00,
2013-04-24 19:49:00,46.9,45.9,29.94,South,172,8.0,13.0,96,0.00,,,0.00,meteohub,2013-04-24 23:49:00,
2013-04-24 19:54:00,46.9,45.9,29.94,SE,143,9.0,16.0,96,0.00,,,0.00,meteohub,2013-04-24 23:54:00,
2013-04-24 19:59:00,46.9,45.9,29.94,SW,236,4.0,16.0,96,0.00,,,0.00,meteohub,2013-04-24 23:59:00,
2013-04-24 20:04:00,46.9,45.9,29.94,SSE,168,9.0,16.0,96,0.00,,,0.00,meteohub,2013-04-25 00:04:00,
2013-04-24 20:09:00,46.9,45.9,29.94,ESE,113,5.0,13.0,96,0.00,,,0.00,meteohub,2013-04-25 00:09:00,
2013-04-24 20:14:00,46.9,45.9,29.94,WSW,246,5.0,12.0,96,0.00,,,0.00,meteohub,2013-04-25 00:14:00,
2013-04-24 20:19:00,47.1,46.0,29.94,SSE,148,12.0,15.0,96,0.00,,,0.00,meteohub,2013-04-25 00:19:00,
2013-04-24 20:24:00,47.1,46.0,29.95,SSW,198,6.0,15.0,96,0.00,,,0.00,meteohub,2013-04-25 00:24:00,
2013-04-24 20:29:00,47.1,46.0,29.95,SSE,156,1.0,15.0,96,0.00,,,0.00,meteohub,2013-04-25 00:29:00,
2013-04-24 20:34:00,47.3,46.2,29.95,ESE,115,1.0,15.0,96,0.00,,,0.00,meteohub,2013-04-25 00:34:00,
2013-04-24 20:39:00,47.3,46.2,29.96,SW,232,4.0,14.0,96,0.00,,,0.00,meteohub,2013-04-25 00:39:00,
2013-04-24 20:44:00,47.5,46.4,29.96,WSW,243,10.0,13.0,96,0.00,,,0.00,meteohub,2013-04-25 00:44:00,
2013-04-24 20:49:00,47.7,46.9,29.97,SW,232,5.0,13.0,97,0.00,,,0.00,meteohub,2013-04-25 00:49:00,
2013-04-24 20:54:00,47.7,46.9,29.97,South,188,9.0,15.0,97,0.00,,,0.00,meteohub,2013-04-25 00:54:00,
2013-04-24 20:59:00,47.7,46.9,29.98,West,278,1.0,15.0,97,0.00,,,0.00,meteohub,2013-04-25 00:59:00,
2013-04-24 21:04:00,47.8,46.9,29.98,WSW,248,3.0,15.0,97,0.00,,,0.00,meteohub,2013-04-25 01:04:00,
2013-04-24 21:09:00,47.8,46.9,29.99,SW,226,6.0,14.0,97,0.00,,,0.00,meteohub,2013-04-25 01:09:00,
2013-04-24 21:14:00,47.8,46.9,29.99,SE,135,2.0,14.0,97,0.00,,,0.00,meteohub,2013-04-25 01:14:00,
2013-04-24 21:19:00,48.0,47.1,29.99,WSW,240,2.0,14.0,97,0.00,,,0.00,meteohub,2013-04-25 01:19:00,
2013-04-24 21:24:00,48.0,47.1,29.99,South,188,3.0,11.0,97,0.00,,,0.00,meteohub,2013-04-25 01:24:00,
2013-04-24 21:29:00,48.4,47.5,29.99,SW,236,3.0,11.0,97,0.00,,,0.00,meteohub,2013-04-25 01:29:00,
2013-04-24 21:34:00,48.4,47.5,29.99,West,274,3.0,12.0,97,0.00,,,0.00,meteohub,2013-04-25 01:34:00,
2013-04-24 21:39:00,48.6,47.7,29.98,South,169,3.0,12.0,97,0.00,,,0.00,meteohub,2013-04-25 01:39:00,
2013-04-24 21:44:00,48.7,47.8,29.98,SSW,207,2.0,12.0,97,0.00,,,0.00,meteohub,2013-04-25 01:44:00,
2013-04-24 21:49:00,48.9,48.0,29.97,SW,221,11.0,11.0,97,0.00,,,0.00,meteohub,2013-04-25 01:49:00,
2013-04-24 21:54:00,48.9,48.0,29.96,SSW,200,2.0,11.0,97,0.00,,,0.00,meteohub,2013-04-25 01:54:00,
2013-04-24 21:59:00,49.3,48.4,29.96,South,186,9.0,11.0,97,0.00,,,0.00,meteohub,2013-04-25 01:59:00,
2013-04-24 22:04:00,49.5,48.6,29.95,SSE,153,9.0,14.0,97,0.00,,,0.00,meteohub,2013-04-25 02:04:00,
2013-04-24 22:09:00,49.6,48.7,29.96,SSE,149,8.0,15.0,97,0.00,,,0.00,meteohub,2013-04-25 02:09:00,
2013-04-24 22:14:00,49.8,48.9,29.95,East,96,3.0,17.0,97,0.00,,,0.00,meteohub,2013-04-25 02:14:00,
2013-04-24 22:19:00,50.2,49.3,29.95,SE,141,11.0,24.0,97,0.00,,,0.00,meteohub,2013-04-25 02:19:00,
2013-04-24 22:24:00,50.4,49.5,29.94,WSW,249,6.0,24.0,97,0.00,,,0.00,meteohub,2013-04-25 02:24:00,
2013-04-24 22:29:00,50.4,49.5,29.95,SW,215,6.0,19.0,97,0.00,,,0.00,meteohub,2013-04-25 02:29:00,
2013-04-24 22:34:00,50.5,49.6,29.95,SSW,205,4.0,19.0,97,0.00,,,0.00,meteohub,2013-04-25 02:34:00,
2013-04-24 22:39:00,50.5,49.6,29.94,SSW,211,8.0,18.0,97,0.00,,,0.00,meteohub,2013-04-25 02:39:00,
2013-04-24 22:44:00,50.7,49.8,29.94,ESE,121,15.0,19.0,97,0.00,,,0.00,meteohub,2013-04-25 02:44:00,
2013-04-24 22:49:00,50.5,49.6,29.94,SW,219,4.0,19.0,97,0.00,,,0.00,meteohub,2013-04-25 02:49:00,
2013-04-24 22:54:00,50.7,49.8,29.94,West,275,11.0,19.0,97,0.00,,,0.00,meteohub,2013-04-25 02:54:00,
2013-04-24 22:59:00,50.7,49.8,29.94,SSW,198,7.0,19.0,97,0.00,,,0.00,meteohub,2013-04-25 02:59:00,
2013-04-24 23:04:00,50.7,49.8,29.94,WSW,246,16.0,18.0,97,0.00,,,0.00,meteohub,2013-04-25 03:04:00,
2013-04-24 23:09:00,50.9,50.0,29.94,SW,221,6.0,18.0,97,0.00,,,0.00,meteohub,2013-04-25 03:09:00,
2013-04-24 23:14:00,50.9,50.0,29.94,NW,326,2.0,20.0,97,0.00,,,0.00,meteohub,2013-04-25 03:14:00,
2013-04-24 23:19:00,51.1,50.2,29.94,South,170,5.0,23.0,97,0.00,,,0.00,meteohub,2013-04-25 03:19:00,
2013-04-24 23:24:00,51.1,50.2,29.94,ESE,108,14.0,23.0,97,0.00,,,0.00,meteohub,2013-04-25 03:24:00,
2013-04-24 23:29:00,51.1,50.2,29.93,South,174,10.0,23.0,97,0.00,,,0.00,meteohub,2013-04-25 03:29:00,
2013-04-24 23:34:00,51.1,50.2,29.94,SSE,150,12.0,21.0,97,0.00,,,0.00,meteohub,2013-04-25 03:34:00,
2013-04-24 23:39:00,51.1,50.2,29.93,West,274,9.0,21.0,97,0.00,,,0.00,meteohub,2013-04-25 03:39:00,
2013-04-24 23:44:00,51.3,50.4,29.93,ESE,113,3.0,21.0,97,0.00,,,0.00,meteohub,2013-04-25 03:44:00,
2013-04-24 23:49:00,51.3,50.4,29.93,South,174,9.0,19.0,97,0.00,,,0.00,meteohub,2013-04-25 03:49:00,
2013-04-24 23:54:00,51.3,50.2,29.93,SW,221,6.0,19.0,96,0.00,,,0.00,meteohub,2013-04-25 03:54:00,
2013-04-24 23:59:00,51.3,50.2,29.93,South,177,8.0,22.0,96,0.00,,,0.00,meteohub,2013-04-25 03:59:00,